createdAt,value
2022-10-09T00:00:49.884Z,96572.56
2022-10-09T00:03:17.359Z,96570.94
2022-10-09T00:05:45.536Z,96567.09
2022-10-09T00:08:12.692Z,96570.66
2022-10-09T00:10:43.263Z,96558.63
2022-10-09T00:13:10.401Z,96565.19
2022-10-09T00:15:41.933Z,96567.47
2022-10-09T00:18:10.639Z,96560.09
2022-10-09T00:20:45.592Z,96557.13
2022-10-09T00:23:14.682Z,96556.00
2022-10-09T00:25:57.049Z,96562.56
2022-10-09T00:28:25.172Z,96559.59
2022-10-09T00:30:53.754Z,96558.22
2022-10-09T00:33:20.763Z,96554.19
2022-10-09T00:35:47.591Z,96544.69
2022-10-09T00:38:14.376Z,96550.94
2022-10-09T00:40:41.319Z,96552.31
2022-10-09T00:43:17.922Z,96555.38
2022-10-09T00:45:50.119Z,96540.72
2022-10-09T00:48:18.570Z,96552.44
2022-10-09T00:50:57.899Z,96552.75
2022-10-09T00:53:28.472Z,96547.28
2022-10-09T00:55:55.487Z,96541.03
2022-10-09T00:58:24.327Z,96549.78
2022-10-09T01:00:50.936Z,96551.16
2022-10-09T01:03:17.535Z,96542.72
2022-10-09T01:06:11.838Z,96542.75
2022-10-09T01:08:47.928Z,96542.75
2022-10-09T01:11:31.356Z,96541.66
2022-10-09T01:14:22.615Z,96542.81
2022-10-09T01:17:13.953Z,96543.34
2022-10-09T01:19:59.519Z,96535.69
2022-10-09T01:22:55.993Z,96534.00
2022-10-09T01:25:33.885Z,96537.50
2022-10-09T01:28:03.558Z,96535.00
2022-10-09T01:30:32.014Z,96528.44
2022-10-09T01:32:59.387Z,96527.09
2022-10-09T01:35:26.619Z,96528.19
2022-10-09T01:37:54.226Z,96527.38
2022-10-09T01:40:21.922Z,96521.41
2022-10-09T01:42:48.615Z,96517.06
2022-10-09T01:45:16.039Z,96513.00
2022-10-09T01:47:43.324Z,96510.56
2022-10-09T01:50:27.419Z,96508.94
2022-10-09T01:53:00.255Z,96504.56
2022-10-09T01:55:38.655Z,96506.72
2022-10-09T01:58:28.485Z,96509.97
2022-10-09T02:01:03.651Z,96498.47
2022-10-09T02:03:32.143Z,96490.28
2022-10-09T02:06:01.362Z,96490.75
2022-10-09T02:08:31.318Z,96489.63
2022-10-09T02:11:00.347Z,96479.88
2022-10-09T02:13:27.820Z,96489.13
2022-10-09T02:16:09.523Z,96482.59
2022-10-09T02:18:49.905Z,96484.78
2022-10-09T02:21:22.894Z,96488.63
2022-10-09T02:23:51.092Z,96488.91
2022-10-09T02:26:18.682Z,96494.94
2022-10-09T02:28:46.214Z,96478.88
2022-10-09T02:31:23.239Z,96477.00
2022-10-09T02:33:57.786Z,96482.75
2022-10-09T02:36:25.090Z,96474.31
2022-10-09T02:38:51.807Z,96471.31
2022-10-09T02:41:18.388Z,96476.25
2022-10-09T02:43:44.970Z,96472.97
2022-10-09T02:46:11.647Z,96468.38
2022-10-09T02:48:38.227Z,96465.34
2022-10-09T02:51:04.821Z,96461.56
2022-10-09T02:53:31.398Z,96459.38
2022-10-09T02:55:57.981Z,96453.38
2022-10-09T02:58:24.568Z,96461.59
2022-10-09T03:00:52.648Z,96468.16
2022-10-09T03:03:20.543Z,96461.63
2022-10-09T03:05:47.767Z,96454.56
2022-10-09T03:08:14.751Z,96454.88
2022-10-09T03:10:41.517Z,96454.88
2022-10-09T03:13:08.143Z,96455.16
2022-10-09T03:15:37.703Z,96451.91
2022-10-09T03:18:04.483Z,96458.16
2022-10-09T03:20:30.990Z,96448.63
2022-10-09T03:22:57.824Z,96448.88
2022-10-09T03:25:25.099Z,96445.91
2022-10-09T03:27:51.730Z,96445.91
2022-10-09T03:30:18.242Z,96445.38
2022-10-09T03:32:44.798Z,96443.44
2022-10-09T03:35:11.375Z,96445.38
2022-10-09T03:37:37.913Z,96439.94
2022-10-09T03:40:05.377Z,96438.03
2022-10-09T03:42:31.883Z,96435.56
2022-10-09T03:45:00.855Z,96433.38
2022-10-09T03:47:27.406Z,96428.72
2022-10-09T03:49:53.930Z,96432.53
2022-10-09T03:52:20.451Z,96424.63
2022-10-09T03:54:47.043Z,96428.44
2022-10-09T03:57:15.140Z,96430.66
2022-10-09T03:59:41.658Z,96430.09
2022-10-09T04:02:08.387Z,96430.63
2022-10-09T04:04:34.934Z,96443.69
2022-10-09T04:07:01.435Z,96435.78
2022-10-09T04:09:28.009Z,96435.50
2022-10-09T04:11:54.498Z,96431.69
2022-10-09T04:14:21.003Z,96431.16
2022-10-09T04:16:47.601Z,96433.03
2022-10-09T04:19:14.328Z,96426.22
2022-10-09T04:21:40.816Z,96440.66
2022-10-09T04:24:08.684Z,96431.41
2022-10-09T04:26:35.886Z,96426.72
2022-10-09T04:29:02.430Z,96432.75
2022-10-09T04:31:29.061Z,96425.38
2022-10-09T04:33:55.794Z,96430.00
2022-10-09T04:36:22.614Z,96427.03
2022-10-09T04:38:49.235Z,96424.59
2022-10-09T04:41:15.910Z,96436.03
2022-10-09T04:43:42.445Z,96425.97
2022-10-09T04:46:12.430Z,96427.88
2022-10-09T04:48:43.870Z,96420.81
2022-10-09T04:51:11.613Z,96417.00
2022-10-09T04:53:38.680Z,96417.06
2022-10-09T04:56:08.851Z,96413.53
2022-10-09T04:58:36.608Z,96418.16
2022-10-09T05:01:12.784Z,96409.72
2022-10-09T05:03:39.755Z,96426.88
2022-10-09T05:06:09.036Z,96412.16
2022-10-09T05:08:36.178Z,96410.53
2022-10-09T05:11:08.510Z,96411.63
2022-10-09T05:13:38.006Z,96408.91
2022-10-09T05:16:07.267Z,96403.72
2022-10-09T05:18:34.829Z,96408.31
2022-10-09T05:21:05.348Z,96403.38
2022-10-09T05:23:32.913Z,96398.16
2022-10-09T05:26:05.772Z,96404.16
2022-10-09T05:28:32.858Z,96401.72
2022-10-09T05:30:59.754Z,96401.66
2022-10-09T05:33:27.089Z,96402.75
2022-10-09T05:35:55.912Z,96404.94
2022-10-09T05:38:24.124Z,96406.56
2022-10-09T05:40:52.059Z,96401.09
2022-10-09T05:43:18.797Z,96407.88
2022-10-09T05:45:46.425Z,96406.75
2022-10-09T05:48:12.969Z,96403.81
2022-10-09T05:50:39.575Z,96410.94
2022-10-09T05:53:06.084Z,96407.97
2022-10-09T05:55:32.923Z,96410.63
2022-10-09T05:57:59.471Z,96406.00
2022-10-09T06:00:26.063Z,96408.75
2022-10-09T06:02:53.042Z,96414.97
2022-10-09T06:05:19.983Z,96406.22
2022-10-09T06:07:47.101Z,96406.47
2022-10-09T06:10:13.923Z,96407.00
2022-10-09T06:12:40.749Z,96407.31
2022-10-09T06:15:07.894Z,96402.06
2022-10-09T06:17:34.583Z,96402.88
2022-10-09T06:20:01.096Z,96401.47
2022-10-09T06:22:27.666Z,96403.13
2022-10-09T06:24:54.292Z,96398.13
2022-10-09T06:27:20.862Z,96403.03
2022-10-09T06:29:47.385Z,96403.56
2022-10-09T06:32:13.955Z,96400.16
2022-10-09T06:34:40.496Z,96411.47
2022-10-09T06:37:07.031Z,96404.94
2022-10-09T06:39:33.565Z,96403.75
2022-10-09T06:42:00.798Z,96410.13
2022-10-09T06:44:27.724Z,96404.50
2022-10-09T06:46:54.213Z,96400.56
2022-10-09T06:49:20.754Z,96406.44
2022-10-09T06:51:47.607Z,96409.88
2022-10-09T06:54:16.292Z,96406.63
2022-10-09T06:56:42.923Z,96404.19
2022-10-09T06:59:11.015Z,96399.94
2022-10-09T07:01:37.749Z,96393.34
2022-10-09T07:04:07.299Z,96401.50
2022-10-09T07:06:37.431Z,96403.03
2022-10-09T07:09:07.071Z,96390.50
2022-10-09T07:11:39.409Z,96404.53
2022-10-09T07:14:08.376Z,96404.78
2022-10-09T07:16:40.617Z,96412.97
2022-10-09T07:19:11.086Z,96408.25
2022-10-09T07:21:39.602Z,96402.72
2022-10-09T07:24:06.895Z,96403.81
2022-10-09T07:26:35.892Z,96410.19
2022-10-09T07:29:04.007Z,96405.03
2022-10-09T07:31:30.856Z,96405.47
2022-10-09T07:33:57.658Z,96402.78
2022-10-09T07:36:24.888Z,96412.00
2022-10-09T07:38:53.819Z,96402.25
2022-10-09T07:41:21.405Z,96404.88
2022-10-09T07:43:47.988Z,96407.50
2022-10-09T07:46:17.909Z,96407.84
2022-10-09T07:48:44.964Z,96398.81
2022-10-09T07:51:21.292Z,96395.41
2022-10-09T07:53:48.297Z,96397.03
2022-10-09T07:56:32.680Z,96394.41
2022-10-09T07:59:01.773Z,96388.91
2022-10-09T08:01:29.267Z,96392.06
2022-10-09T08:03:57.136Z,96385.03
2022-10-09T08:06:24.397Z,96396.84
2022-10-09T08:08:56.023Z,96386.56
2022-10-09T08:11:24.367Z,96393.25
2022-10-09T08:13:52.180Z,96377.41
2022-10-09T08:16:20.644Z,96374.69
2022-10-09T08:18:47.787Z,96380.06
2022-10-09T08:21:16.956Z,96377.91
2022-10-09T08:23:44.203Z,96371.97
2022-10-09T08:26:17.514Z,96359.88
2022-10-09T08:28:44.319Z,96369.13
2022-10-09T08:31:15.848Z,96371.84
2022-10-09T08:33:43.021Z,96371.13
2022-10-09T08:36:11.948Z,96362.75
2022-10-09T08:38:47.285Z,96370.97
2022-10-09T08:41:26.726Z,96371.28
2022-10-09T08:44:22.173Z,96366.59
2022-10-09T08:46:55.464Z,96367.22
2022-10-09T08:49:31.792Z,96375.09
2022-10-09T08:52:03.608Z,96362.19
2022-10-09T08:54:34.501Z,96352.09
2022-10-09T08:57:04.252Z,96353.72
2022-10-09T08:59:31.698Z,96358.47
2022-10-09T09:02:35.995Z,96357.16
2022-10-09T09:05:25.837Z,96348.63
2022-10-09T09:08:06.298Z,96347.38
2022-10-09T09:10:42.563Z,96348.28
2022-10-09T09:13:46.106Z,96337.75
2022-10-09T09:16:40.636Z,96354.03
2022-10-09T09:19:23.211Z,96336.56
2022-10-09T09:21:51.613Z,96335.03
2022-10-09T09:24:38.635Z,96334.75
2022-10-09T09:27:16.285Z,96321.75
2022-10-09T09:29:48.795Z,96336.09
2022-10-09T09:32:23.332Z,96330.56
2022-10-09T09:34:50.513Z,96328.69
2022-10-09T09:37:17.307Z,96313.16
2022-10-09T09:40:34.543Z,96321.31
2022-10-09T09:42:30.948Z,96315.19
2022-10-09T10:19:38.926Z,96272.16
2022-10-09T10:22:20.498Z,96281.41
2022-10-09T10:24:49.361Z,96279.44
2022-10-09T10:27:35.445Z,96269.22
2022-10-09T10:30:06.259Z,96262.59
2022-10-09T10:32:39.564Z,96264.66
2022-10-09T10:35:14.931Z,96260.31
2022-10-09T10:38:14.705Z,96254.81
2022-10-09T10:40:50.804Z,96257.72
2022-10-09T10:43:40.814Z,96248.47
2022-10-09T10:46:22.197Z,96252.94
2022-10-09T10:48:50.067Z,96248.31
2022-10-09T10:51:16.582Z,96243.56
2022-10-09T10:54:04.106Z,96245.22
2022-10-09T10:56:56.089Z,96236.13
2022-10-09T10:59:45.161Z,96231.75
2022-10-09T11:02:32.669Z,96232.50
2022-10-09T11:05:14.579Z,96220.81
2022-10-09T11:07:59.915Z,96237.72
2022-10-09T11:10:48.663Z,96227.53
2022-10-09T11:13:28.875Z,96230.00
2022-10-09T11:16:21.662Z,96221.19
2022-10-09T11:19:02.979Z,96219.50
2022-10-09T11:21:52.083Z,96204.31
2022-10-09T11:24:50.494Z,96217.81
2022-10-09T11:27:28.741Z,96211.16
2022-10-09T11:30:14.758Z,96210.50
2022-10-09T11:33:03.034Z,96209.75
2022-10-09T11:35:39.885Z,96207.47
2022-10-09T11:38:24.275Z,96200.38
2022-10-09T11:40:51.992Z,96183.97
2022-10-09T11:43:24.496Z,96187.59
2022-10-09T11:46:18.249Z,96193.00
2022-10-09T11:49:03.039Z,96189.06
2022-10-09T11:51:45.707Z,96184.31
2022-10-09T11:54:18.644Z,96179.06
2022-10-09T11:57:00.426Z,96173.78
2022-10-09T11:59:42.057Z,96176.63
2022-10-09T12:02:30.741Z,96174.81
2022-10-09T12:04:57.550Z,96169.00
2022-10-09T12:07:28.368Z,96166.41
2022-10-09T12:10:03.737Z,96161.31
2022-10-09T12:12:31.098Z,96155.25
2022-10-09T12:14:58.480Z,96156.06
2022-10-09T12:17:25.082Z,96142.88
2022-10-09T12:20:07.537Z,96146.09
2022-10-09T12:22:42.609Z,96138.66
2022-10-09T12:25:23.976Z,96130.63
2022-10-09T12:27:54.896Z,96127.78
2022-10-09T12:30:24.768Z,96112.22
2022-10-09T12:33:00.663Z,96124.84
2022-10-09T12:35:38.418Z,96112.44
2022-10-09T12:38:26.745Z,96120.31
2022-10-09T12:40:55.806Z,96115.19
2022-10-09T12:43:23.759Z,96117.69
2022-10-09T12:45:52.958Z,96117.91
2022-10-09T12:48:28.024Z,96105.53
2022-10-09T12:50:55.117Z,96104.53
2022-10-09T12:53:24.930Z,96105.09
2022-10-09T12:55:56.127Z,96103.22
2022-10-09T12:58:26.205Z,96098.72
2022-10-09T13:00:59.938Z,96088.31
2022-10-09T13:03:39.731Z,96092.78
2022-10-09T13:06:15.893Z,96084.91
2022-10-09T13:08:43.268Z,96087.66
2022-10-09T13:11:20.435Z,96088.09
2022-10-09T13:13:51.400Z,96072.44
2022-10-09T13:16:18.342Z,96080.78
2022-10-09T13:18:59.587Z,96058.50
2022-10-09T13:21:35.127Z,96057.41
2022-10-09T13:24:10.937Z,96056.44
2022-10-09T13:26:39.147Z,96057.72
2022-10-09T13:29:07.559Z,96051.16
2022-10-09T13:31:36.661Z,96047.44
2022-10-09T13:34:12.387Z,96040.66
2022-10-09T13:36:39.030Z,96039.16
2022-10-09T13:39:05.914Z,96036.06
2022-10-09T13:41:32.935Z,96030.06
2022-10-09T13:43:59.481Z,96036.28
2022-10-09T13:46:26.049Z,96022.00
2022-10-09T13:48:52.626Z,96026.94
2022-10-09T13:51:19.164Z,96024.75
2022-10-09T13:53:45.771Z,96025.47
2022-10-09T13:56:12.403Z,96022.69
2022-10-09T13:58:38.985Z,96021.75
2022-10-09T14:01:05.869Z,96022.91
2022-10-09T14:03:32.410Z,96003.44
2022-10-09T14:06:00.815Z,96008.63
2022-10-09T14:08:27.677Z,95999.41
2022-10-09T14:10:54.597Z,96002.19
2022-10-09T14:13:21.872Z,96001.59
2022-10-09T14:15:48.600Z,96001.28
2022-10-09T14:18:15.172Z,96000.94
2022-10-09T14:20:41.754Z,95990.66
2022-10-09T14:23:09.305Z,95985.81
2022-10-09T14:25:35.996Z,95994.56
2022-10-09T14:28:02.938Z,95982.50
2022-10-09T14:30:29.647Z,95986.31
2022-10-09T14:32:56.343Z,95982.28
2022-10-09T14:35:23.489Z,95967.31
2022-10-09T14:37:50.022Z,95970.88
2022-10-09T14:40:16.837Z,95975.00
2022-10-09T14:42:43.370Z,95970.28
2022-10-09T14:45:10.514Z,95962.53
2022-10-09T14:47:37.130Z,95963.31
2022-10-09T14:50:04.081Z,95953.34
2022-10-09T14:52:30.578Z,95959.13
2022-10-09T14:54:57.155Z,95959.94
2022-10-09T14:57:23.750Z,95953.50
2022-10-09T14:59:50.287Z,95943.69
2022-10-09T15:02:17.325Z,95944.06
2022-10-09T15:04:43.919Z,95929.34
2022-10-09T15:07:10.530Z,95935.75
2022-10-09T15:09:37.178Z,95933.66
2022-10-09T15:12:03.903Z,95934.59
2022-10-09T15:14:30.593Z,95934.16
2022-10-09T15:16:58.298Z,95931.72
2022-10-09T15:19:25.075Z,95924.28
2022-10-09T15:21:51.648Z,95928.28
2022-10-09T15:24:18.173Z,95918.84
2022-10-09T15:26:44.716Z,95921.63
2022-10-09T15:29:12.154Z,95907.66
2022-10-09T15:31:40.942Z,95910.75
2022-10-09T15:34:10.291Z,95920.53
2022-10-09T15:36:39.618Z,95913.19
2022-10-09T15:39:08.909Z,95911.44
2022-10-09T15:41:37.980Z,95916.63
2022-10-09T15:44:14.098Z,95902.69
2022-10-09T15:46:40.653Z,95908.56
2022-10-09T15:49:08.021Z,95900.50
2022-10-09T15:51:34.978Z,95906.00
2022-10-09T15:54:02.020Z,95904.63
2022-10-09T15:56:29.460Z,95893.72
2022-10-09T15:58:57.541Z,95892.63
2022-10-09T16:14:23.466Z,95870.53
2022-10-09T16:16:51.509Z,95867.31
2022-10-09T16:19:18.135Z,95868.09
2022-10-09T16:21:44.980Z,95882.06
2022-10-09T16:24:11.567Z,95886.34
2022-10-09T16:26:38.251Z,95877.75
2022-10-09T16:29:04.856Z,95881.22
2022-10-09T16:31:36.454Z,95880.47
2022-10-09T16:34:05.545Z,95882.38
2022-10-09T16:36:32.487Z,95875.09
2022-10-09T16:38:59.068Z,95879.19
2022-10-09T16:41:26.345Z,95869.53
2022-10-09T16:43:56.146Z,95877.22
2022-10-09T16:46:26.891Z,95879.00
2022-10-09T16:48:55.256Z,95878.72
2022-10-09T16:51:27.426Z,95877.16
2022-10-09T16:53:56.721Z,95880.13
2022-10-09T16:56:26.043Z,95878.06
2022-10-09T16:59:00.598Z,95877.56
2022-10-09T17:01:28.130Z,95878.38
2022-10-09T17:03:59.236Z,95881.00
2022-10-09T17:06:26.560Z,95885.06
2022-10-09T17:08:54.856Z,95879.25
2022-10-09T17:11:22.431Z,95880.75
2022-10-09T17:13:49.295Z,95879.00
2022-10-09T17:16:19.157Z,95876.91
2022-10-09T17:18:47.165Z,95883.03
2022-10-09T17:21:15.283Z,95883.53
2022-10-09T17:23:41.919Z,95880.31
2022-10-09T17:26:15.023Z,95878.88
2022-10-09T17:28:42.767Z,95866.75
2022-10-09T17:31:14.207Z,95871.28
2022-10-09T17:33:42.975Z,95873.53
2022-10-09T17:36:11.182Z,95857.69
2022-10-09T17:38:38.289Z,95862.38
2022-10-09T17:41:06.855Z,95863.66
2022-10-09T17:43:33.538Z,95867.38
2022-10-09T17:46:00.950Z,95860.91
2022-10-09T17:48:28.147Z,95857.69
2022-10-09T17:50:57.078Z,95865.44
2022-10-09T17:53:24.487Z,95859.13
2022-10-09T17:55:52.824Z,95852.84
2022-10-09T17:58:20.844Z,95848.16
2022-10-09T18:00:47.902Z,95848.34
2022-10-09T18:03:15.483Z,95840.88
2022-10-09T18:05:49.920Z,95843.31
2022-10-09T18:08:19.007Z,95840.22
2022-10-09T18:10:46.221Z,95838.78
2022-10-09T18:13:14.845Z,95841.19
2022-10-09T18:15:43.914Z,95842.03
2022-10-09T18:18:11.405Z,95845.09
2022-10-09T18:20:39.526Z,95847.88
2022-10-09T18:23:07.642Z,95840.44
2022-10-09T18:25:35.498Z,95834.16
2022-10-09T18:28:02.170Z,95830.25
2022-10-09T18:30:28.758Z,95834.47
2022-10-09T18:32:55.820Z,95831.41
2022-10-09T18:35:22.711Z,95832.53
2022-10-09T18:37:49.253Z,95841.28
2022-10-09T18:40:15.857Z,95838.69
2022-10-09T18:42:42.666Z,95831.09
2022-10-09T18:45:12.734Z,95834.97
2022-10-09T18:47:39.569Z,95832.88
2022-10-09T18:50:09.342Z,95833.69
2022-10-09T18:52:37.417Z,95836.41
2022-10-09T18:55:06.229Z,95827.38
2022-10-09T18:57:34.224Z,95823.00
2022-10-09T19:00:01.887Z,95817.69
2022-10-09T19:02:28.686Z,95817.53
2022-10-09T19:04:55.857Z,95808.50
2022-10-09T19:07:22.603Z,95815.75
2022-10-09T19:09:53.587Z,95818.81
2022-10-09T19:12:23.015Z,95808.31
2022-10-09T19:14:49.811Z,95809.47
2022-10-09T19:17:16.414Z,95811.06
2022-10-09T19:19:42.982Z,95813.50
2022-10-09T19:22:14.111Z,95811.56
2022-10-09T19:24:42.238Z,95816.53
2022-10-09T19:27:08.937Z,95814.31
2022-10-09T19:29:35.754Z,95811.69
2022-10-09T19:32:02.407Z,95803.97
2022-10-09T19:34:29.741Z,95806.38
2022-10-09T19:36:56.367Z,95804.59
2022-10-09T19:39:22.999Z,95805.41
2022-10-09T19:41:51.167Z,95808.97
2022-10-09T19:44:18.523Z,95800.91
2022-10-09T19:46:45.821Z,95798.31
2022-10-09T19:49:12.667Z,95805.25
2022-10-09T19:51:39.255Z,95802.53
2022-10-09T19:54:08.368Z,95803.50
2022-10-09T19:56:36.215Z,95807.19
2022-10-09T19:59:05.976Z,95799.13
2022-10-09T20:01:35.483Z,95807.84
2022-10-09T20:04:07.683Z,95806.88
2022-10-09T20:06:36.953Z,95802.84
2022-10-09T20:09:04.892Z,95797.84
2022-10-09T20:11:31.546Z,95803.66
2022-10-09T20:13:58.802Z,95799.13
2022-10-09T20:16:25.684Z,95802.19
2022-10-09T20:18:54.594Z,95808.34
2022-10-09T20:21:21.253Z,95799.28
2022-10-09T20:23:47.817Z,95789.94
2022-10-09T20:26:16.991Z,95794.13
2022-10-09T20:28:44.599Z,95791.53
2022-10-09T20:31:18.114Z,95795.56
2022-10-09T20:33:46.342Z,95795.25
2022-10-09T20:36:31.382Z,95796.06
2022-10-09T20:39:00.555Z,95792.50
2022-10-09T20:41:29.105Z,95792.19
2022-10-09T20:43:57.343Z,95782.50
2022-10-09T20:46:24.988Z,95782.50
2022-10-09T20:48:52.515Z,95783.13
2022-10-09T20:51:21.070Z,95785.06
2022-10-09T20:53:56.033Z,95783.13
2022-10-09T20:56:24.403Z,95779.56
2022-10-09T20:58:51.425Z,95782.44
2022-10-09T21:01:18.133Z,95783.91
2022-10-09T21:03:44.780Z,95785.03
2022-10-09T21:06:14.750Z,95782.44
2022-10-09T21:08:41.435Z,95776.31
2022-10-09T21:11:11.735Z,95771.63
2022-10-09T21:13:40.132Z,95774.84
2022-10-09T21:16:08.753Z,95773.06
2022-10-09T21:18:36.210Z,95773.25
2022-10-09T21:21:05.426Z,95780.16
2022-10-09T21:23:32.038Z,95781.59
2022-10-09T21:25:59.053Z,95788.06
2022-10-09T21:28:26.479Z,95782.25
2022-10-09T21:30:53.033Z,95784.34
2022-10-09T21:33:19.688Z,95783.81
2022-10-09T21:35:51.381Z,95790.41
2022-10-09T21:38:19.928Z,95778.81
2022-10-09T21:40:47.403Z,95786.38
2022-10-09T21:43:14.046Z,95791.00
2022-10-09T21:45:41.279Z,95775.38
2022-10-09T21:48:08.686Z,95770.34
2022-10-09T21:50:36.679Z,95777.44
2022-10-09T21:53:03.948Z,95775.19
2022-10-09T21:55:30.606Z,95775.34
2022-10-09T21:57:57.410Z,95763.25
2022-10-09T22:00:27.225Z,95764.72
2022-10-09T22:02:53.957Z,95767.47
2022-10-09T22:05:20.726Z,95766.34
2022-10-09T22:07:47.667Z,95766.81
2022-10-09T22:10:14.212Z,95760.28
2022-10-09T22:12:40.839Z,95767.19
2022-10-09T22:15:07.761Z,95764.56
2022-10-09T22:17:34.310Z,95760.34
2022-10-09T22:20:00.840Z,95757.25
2022-10-09T22:22:27.533Z,95759.31
2022-10-09T22:24:54.087Z,95756.84
2022-10-09T22:27:20.647Z,95757.16
2022-10-09T22:29:47.343Z,95759.91
2022-10-09T22:32:13.962Z,95752.19
2022-10-09T22:34:40.552Z,95753.44
2022-10-09T22:37:07.143Z,95751.34
2022-10-09T22:39:33.939Z,95756.81
2022-10-09T22:42:00.509Z,95750.25
2022-10-09T22:44:27.153Z,95744.81
2022-10-09T22:46:53.906Z,95741.47
2022-10-09T22:49:20.413Z,95742.94
2022-10-09T22:51:47.131Z,95742.16
2022-10-09T22:54:13.966Z,95742.47
2022-10-09T22:56:43.053Z,95733.34
2022-10-09T22:59:11.935Z,95735.47
2022-10-09T23:01:43.417Z,95740.00
2022-10-09T23:04:16.662Z,95734.81
2022-10-09T23:06:43.983Z,95735.63
2022-10-09T23:09:13.095Z,95734.88
2022-10-09T23:11:40.227Z,95734.06
2022-10-09T23:14:06.925Z,95731.28
2022-10-09T23:16:34.441Z,95737.75
2022-10-09T23:19:06.457Z,95726.28
2022-10-09T23:21:34.694Z,95737.91
2022-10-09T23:24:01.246Z,95723.06
2022-10-09T23:26:30.599Z,95721.47
2022-10-09T23:29:04.168Z,95721.69
2022-10-09T23:31:31.220Z,95715.56
2022-10-09T23:33:58.747Z,95726.19
2022-10-09T23:36:27.827Z,95717.81
2022-10-09T23:38:55.169Z,95712.97
2022-10-09T23:41:24.542Z,95709.91
2022-10-09T23:43:51.893Z,95720.88
2022-10-09T23:46:21.498Z,95712.31
2022-10-09T23:48:48.933Z,95710.50
2022-10-09T23:51:16.605Z,95717.81
2022-10-09T23:53:43.305Z,95714.59
2022-10-09T23:56:20.453Z,95714.59
2022-10-09T23:58:47.709Z,95711.63
